Time;durP1;ratioP1;P1;durP2;ratioP2;P2;SDS_P1;SDS_P2;PMS_P1;PMS_P2;Temp;Humidity;BMP_temperature;BMP_pressure;BME280_temperature;BME280_humidity;BME280_pressure;Samples;Min_cycle;Max_cycle;Signal;HPM_P1;HPM_P2
2023/01/19 00:00:45;;;;;;;20.20;3.10;;;;;;;14.42;61.34;98439.44;4942919;28;20097;-91
2023/01/19 00:03:14;;;;;;;20.52;4.07;;;;;;;14.38;60.96;98431.19;4940514;29;20054;-93
2023/01/19 00:05:42;;;;;;;20.17;2.72;;;;;;;14.42;61.10;98437.56;4947099;28;20026;-92
2023/01/19 00:08:13;;;;;;;18.00;3.05;;;;;;;14.44;61.49;98434.50;4935828;28;20039;-91
2023/01/19 00:10:40;;;;;;;15.63;2.63;;;;;;;14.52;61.15;98447.25;4959713;28;20034;-93
2023/01/19 00:13:05;;;;;;;13.98;2.75;;;;;;;14.32;61.69;98444.06;4926235;28;20114;-92
2023/01/19 00:15:31;;;;;;;12.95;2.95;;;;;;;14.41;61.30;98443.28;4930749;28;20065;-91
2023/01/19 00:17:56;;;;;;;19.08;3.55;;;;;;;14.48;61.13;98462.56;4928615;28;20035;-93
2023/01/19 00:20:22;;;;;;;16.58;3.85;;;;;;;14.48;61.06;98449.81;4943034;28;20041;-92
2023/01/19 00:22:49;;;;;;;11.20;2.33;;;;;;;14.50;61.07;98458.41;4928392;28;20034;-92
2023/01/19 00:25:15;;;;;;;13.98;2.80;;;;;;;14.48;61.00;98460.63;4926799;28;20082;-91
2023/01/19 00:27:41;;;;;;;9.23;2.28;;;;;;;14.43;61.01;98451.88;4943225;28;20039;-90
2023/01/19 00:30:07;;;;;;;22.48;3.42;;;;;;;14.53;60.98;98474.03;4926228;28;20057;-92
2023/01/19 00:32:32;;;;;;;19.45;2.80;;;;;;;14.59;60.83;98473.91;4927474;28;20031;-93
2023/01/19 00:34:58;;;;;;;20.20;3.63;;;;;;;14.58;60.80;98480.47;4923594;29;20038;-93
2023/01/19 00:37:23;;;;;;;15.93;3.17;;;;;;;14.53;60.53;98468.63;4923926;28;20041;-92
2023/01/19 00:39:49;;;;;;;19.33;3.30;;;;;;;14.60;60.36;98484.44;4936044;28;20039;-92
2023/01/19 00:44:58;;;;;;;13.68;3.15;;;;;;;14.59;60.66;98504.53;4946486;28;20159;-92
2023/01/19 00:47:24;;;;;;;14.13;2.58;;;;;;;14.44;60.72;98504.94;4926743;28;20055;-93
2023/01/19 00:49:49;;;;;;;21.05;3.08;;;;;;;14.59;60.74;98518.06;4925599;28;20037;-92
2023/01/19 00:52:15;;;;;;;20.02;3.42;;;;;;;14.39;60.60;98491.53;4924411;28;20070;-90
2023/01/19 00:54:40;;;;;;;21.40;3.58;;;;;;;14.33;60.97;98488.97;4925498;28;20031;-89
2023/01/19 00:57:06;;;;;;;18.95;3.45;;;;;;;14.34;60.85;98496.00;4933349;28;20026;-90
2023/01/19 00:59:31;;;;;;;12.90;2.50;;;;;;;14.38;61.17;98503.47;4941811;28;20046;-91
2023/01/19 01:01:57;;;;;;;14.38;2.67;;;;;;;14.40;61.06;98502.06;4925222;28;20030;-90
2023/01/19 01:04:22;;;;;;;14.55;2.53;;;;;;;14.48;60.69;98505.91;4957672;28;20031;-90
2023/01/19 01:06:47;;;;;;;21.52;3.15;;;;;;;14.44;60.63;98499.50;4924071;29;20071;-90
2023/01/19 01:09:13;;;;;;;18.33;4.28;;;;;;;14.53;60.39;98497.63;4931756;28;20034;-91
2023/01/19 01:11:42;;;;;;;18.83;2.65;;;;;;;14.36;60.38;98490.28;4926154;28;20039;-90
2023/01/19 01:14:08;;;;;;;12.07;2.90;;;;;;;14.33;60.89;98493.59;4926738;28;20039;-92
2023/01/19 01:16:34;;;;;;;15.95;3.58;;;;;;;14.32;61.12;98498.22;4922941;29;20046;-93
2023/01/19 01:18:59;;;;;;;17.20;3.30;;;;;;;14.46;60.89;98510.84;4915682;28;20074;-90
2023/01/19 01:21:25;;;;;;;11.88;2.35;;;;;;;14.58;60.38;98512.97;4925629;28;20055;-92
2023/01/19 01:23:50;;;;;;;13.90;2.58;;;;;;;14.61;60.47;98513.13;4926132;28;20034;-92
2023/01/19 01:26:16;;;;;;;15.15;2.97;;;;;;;14.50;60.29;98504.47;4941736;28;20058;-92
2023/01/19 01:28:41;;;;;;;18.13;2.97;;;;;;;14.45;60.47;98491.09;4942147;28;20046;-92
2023/01/19 01:31:06;;;;;;;14.05;3.28;;;;;;;14.47;60.53;98507.03;4928765;28;20030;-92
2023/01/19 01:33:32;;;;;;;15.25;2.83;;;;;;;14.38;60.55;98489.94;4926171;28;20034;-92
2023/01/19 01:35:57;;;;;;;13.90;3.08;;;;;;;14.45;60.63;98493.00;4926104;28;20490;-92
2023/01/19 01:38:23;;;;;;;15.07;2.90;;;;;;;14.39;60.73;98499.69;4926472;28;20043;-92
2023/01/19 01:40:48;;;;;;;20.05;3.65;;;;;;;14.33;60.95;98497.09;4939210;28;20512;-91
2023/01/19 01:43:15;;;;;;;18.77;3.05;;;;;;;14.43;60.61;98500.63;4941333;28;20513;-92
2023/01/19 01:45:41;;;;;;;26.40;3.08;;;;;;;14.31;60.57;98488.50;4934675;28;20073;-92
2023/01/19 01:48:12;;;;;;;15.32;2.65;;;;;;;14.33;60.90;98502.50;4956680;28;20063;-93
2023/01/19 01:51:22;;;;;;;21.00;3.30;;;;;;;14.42;60.66;98499.84;4956065;28;20038;-91
2023/01/19 01:53:28;;;;;;;18.90;2.85;;;;;;;14.18;61.03;98467.75;4970291;28;20054;-91
2023/01/19 01:55:54;;;;;;;12.88;2.70;;;;;;;14.19;61.13;98480.16;4927113;28;20027;-91
2023/01/19 01:58:19;;;;;;;13.77;2.97;;;;;;;14.27;60.94;98495.66;4928976;28;20042;-91
2023/01/19 02:03:28;;;;;;;12.32;2.97;;;;;;;14.28;60.78;98474.81;4950270;28;20041;-92
2023/01/19 02:05:56;;;;;;;18.20;2.88;;;;;;;14.41;60.59;98483.91;4944457;28;20420;-93
2023/01/19 02:14:05;;;;;;;14.50;2.60;;;;;;;14.46;60.24;98479.13;4937045;28;20038;-92
2023/01/19 02:16:30;;;;;;;18.23;3.28;;;;;;;14.45;60.11;98482.94;4945442;28;20513;-93
2023/01/19 02:18:56;;;;;;;15.80;3.33;;;;;;;14.28;60.48;98472.88;4929584;28;20127;-93
2023/01/19 02:21:41;;;;;;;15.82;3.53;;;;;;;14.21;60.38;98466.31;4944806;28;20035;-92
2023/01/19 02:24:07;;;;;;;18.73;3.38;;;;;;;14.28;60.60;98483.72;4944783;28;20027;-91
2023/01/19 02:26:43;;;;;;;13.63;2.97;;;;;;;14.30;60.23;98497.75;4935640;28;20466;-92
2023/01/19 02:29:13;;;;;;;19.90;3.30;;;;;;;14.37;60.11;98497.28;4946336;28;20105;-92
2023/01/19 02:31:39;;;;;;;16.48;2.67;;;;;;;14.30;59.95;98484.19;4960971;28;20035;-92
2023/01/19 02:34:06;;;;;;;18.52;2.67;;;;;;;14.30;60.06;98478.78;4961116;28;20057;-92
2023/01/19 02:36:54;;;;;;;14.65;3.08;;;;;;;14.40;60.44;98503.97;4944183;28;20027;-93
2023/01/19 02:39:24;;;;;;;19.58;3.80;;;;;;;14.25;59.89;98508.69;4946899;28;20030;-92
2023/01/19 02:41:52;;;;;;;20.17;3.78;;;;;;;14.21;60.43;98507.72;4961129;28;20038;-92
2023/01/19 02:44:17;;;;;;;17.67;2.80;;;;;;;14.18;60.48;98511.06;4961237;28;20038;-91
2023/01/19 02:46:43;;;;;;;16.95;3.20;;;;;;;14.08;60.52;98495.13;4937926;28;20042;-93
2023/01/19 02:49:08;;;;;;;15.75;3.42;;;;;;;13.99;60.49;98486.19;4927025;28;20061;-92
2023/01/19 02:51:34;;;;;;;19.15;3.15;;;;;;;14.10;60.52;98504.50;4927732;28;20043;-92
2023/01/19 02:54:27;;;;;;;14.35;3.08;;;;;;;14.12;60.29;98520.44;4945087;28;20034;-93
2023/01/19 02:57:16;;;;;;;20.90;4.00;;;;;;;14.19;60.20;98511.88;4959325;28;20046;-92
2023/01/19 03:00:00;;;;;;;14.32;2.90;;;;;;;14.10;59.99;98492.91;4938495;28;20060;-92
2023/01/19 03:02:32;;;;;;;13.80;3.03;;;;;;;14.15;59.79;98500.88;4944595;28;20031;-93
2023/01/19 03:05:12;;;;;;;22.63;3.70;;;;;;;14.26;59.70;98515.72;4944356;28;20045;-91
2023/01/19 03:07:51;;;;;;;14.60;3.17;;;;;;;14.19;59.78;98517.28;4976822;28;20046;-93
2023/01/19 03:10:23;;;;;;;19.42;4.10;;;;;;;14.06;59.92;98498.13;4952443;28;20520;-90
2023/01/19 03:12:52;;;;;;;;;;;;;;;14.24;59.58;98517.94;4909526;29;20039;-92
2023/01/19 03:15:21;;;;;;;20.40;4.20;;;;;;;14.13;60.03;98519.31;4940868;29;19914;-92
2023/01/19 03:17:48;;;;;;;28.63;3.83;;;;;;;14.12;59.83;98515.03;4925181;29;20134;-92
2023/01/19 03:20:13;;;;;;;13.55;3.65;;;;;;;14.05;59.91;98504.66;4927905;28;20039;-92
2023/01/19 03:22:39;;;;;;;22.38;4.38;;;;;;;13.97;59.99;98502.72;4943256;28;20504;-92
2023/01/19 03:25:05;;;;;;;16.35;2.85;;;;;;;13.88;60.35;98518.94;4925086;29;20031;-90
2023/01/19 03:27:40;;;;;;;25.92;4.13;;;;;;;13.85;60.40;98510.63;4940709;28;20093;-92
2023/01/19 03:30:12;;;;;;;22.23;4.05;;;;;;;13.83;60.19;98515.53;4953691;28;20045;-92
2023/01/19 03:32:44;;;;;;;22.00;3.63;;;;;;;13.82;60.31;98505.81;4928257;28;20035;-92
2023/01/19 03:35:11;;;;;;;;;;;;;;;14.01;60.19;98527.25;4943737;28;20046;-92
2023/01/19 03:37:38;;;;;;;26.60;3.53;;;;;;;13.87;60.10;98506.50;4943803;28;20376;-92
2023/01/19 03:40:04;;;;;;;12.82;2.97;;;;;;;13.91;59.94;98512.09;4943437;28;20041;-91
2023/01/19 03:42:30;;;;;;;18.40;3.15;;;;;;;13.90;59.75;98494.25;4927617;28;20023;-91
2023/01/19 03:44:55;;;;;;;17.15;2.95;;;;;;;13.93;59.45;98501.75;4926374;28;20039;-91
2023/01/19 03:47:21;;;;;;;23.35;3.80;;;;;;;13.94;59.69;98500.63;4928875;28;20505;-92
2023/01/19 03:49:47;;;;;;;20.55;4.15;;;;;;;13.93;60.00;98499.03;4927684;28;20030;-92
2023/01/19 03:52:13;;;;;;;20.77;3.58;;;;;;;14.01;59.66;98511.00;4926949;28;20061;-92
2023/01/19 03:54:38;;;;;;;21.63;2.97;;;;;;;13.79;60.30;98514.56;4923916;29;20099;-92
2023/01/19 03:57:03;;;;;;;15.38;2.90;;;;;;;13.84;60.29;98509.84;4943147;28;20445;-92
2023/01/19 03:59:29;;;;;;;14.88;4.07;;;;;;;13.78;60.33;98489.44;4927296;28;20030;-92
2023/01/19 04:01:54;;;;;;;16.20;3.38;;;;;;;13.79;60.00;98495.63;4927078;28;20026;-92
2023/01/19 04:04:20;;;;;;;16.00;3.72;;;;;;;13.66;60.35;98484.59;4922818;29;20042;-92
2023/01/19 04:06:45;;;;;;;17.27;3.63;;;;;;;13.66;60.56;98494.63;4940502;28;20509;-92
2023/01/19 04:09:11;;;;;;;18.45;3.75;;;;;;;13.74;60.47;98501.97;4926922;28;20038;-92
2023/01/19 04:11:36;;;;;;;15.85;3.80;;;;;;;13.76;60.53;98499.75;4935781;28;20038;-90
2023/01/19 04:14:02;;;;;;;23.15;4.30;;;;;;;13.79;60.23;98514.56;4926673;28;20042;-92
2023/01/19 04:16:27;;;;;;;26.02;4.68;;;;;;;13.77;60.40;98514.88;4926737;28;20057;-91
2023/01/19 04:18:53;;;;;;;29.25;4.82;;;;;;;13.71;60.30;98514.19;4926982;28;20580;-92
2023/01/19 04:21:21;;;;;;;20.45;3.92;;;;;;;13.77;60.24;98525.69;4942587;28;20426;-91
2023/01/19 04:23:48;;;;;;;13.82;3.17;;;;;;;13.74;60.28;98512.81;4943635;28;20077;-92
2023/01/19 04:26:14;;;;;;;17.20;3.55;;;;;;;13.74;59.88;98507.41;4927104;28;20046;-92
2023/01/19 04:28:39;;;;;;;18.88;3.75;;;;;;;13.68;60.20;98514.84;4943463;28;20046;-92
2023/01/19 04:31:05;;;;;;;22.15;4.07;;;;;;;13.56;60.10;98516.50;4943341;28;20034;-93
2023/01/19 04:33:31;;;;;;;16.38;3.55;;;;;;;13.57;60.24;98501.88;4942405;28;20042;-93
2023/01/19 04:35:56;;;;;;;21.02;3.92;;;;;;;13.59;60.02;98494.25;4927156;28;20031;-94
2023/01/19 04:38:23;;;;;;;22.75;4.55;;;;;;;13.71;59.88;98511.50;4942537;28;20038;-93
2023/01/19 04:40:49;;;;;;;22.67;3.75;;;;;;;13.53;59.59;98505.22;4927091;28;20049;-91
2023/01/19 04:43:15;;;;;;;19.05;3.38;;;;;;;13.53;59.34;98504.41;4926156;28;20097;-91
2023/01/19 04:45:40;;;;;;;22.65;4.10;;;;;;;13.56;59.38;98511.09;4943017;28;20034;-92
2023/01/19 04:48:06;;;;;;;14.80;3.05;;;;;;;13.67;59.49;98524.03;4943540;28;20039;-93
2023/01/19 04:50:31;;;;;;;18.75;3.40;;;;;;;13.68;59.03;98516.75;4927564;28;20062;-91
2023/01/19 04:52:57;;;;;;;22.27;4.13;;;;;;;13.56;59.33;98519.22;4926901;28;20035;-91
2023/01/19 04:55:22;;;;;;;25.70;4.65;;;;;;;13.69;59.43;98548.88;4943352;28;20074;-91
2023/01/19 04:57:48;;;;;;;17.27;4.65;;;;;;;13.68;59.34;98530.28;4942506;28;20101;-91
2023/01/19 05:00:14;;;;;;;17.25;3.30;;;;;;;13.74;59.07;98537.94;4942422;28;20039;-91
2023/01/19 05:02:42;;;;;;;24.95;4.68;;;;;;;13.67;59.25;98537.56;4953686;28;20035;-92
2023/01/19 05:05:08;;;;;;;25.60;4.45;;;;;;;13.73;59.02;98532.84;4915221;28;20030;-91
2023/01/19 05:07:34;;;;;;;21.52;4.07;;;;;;;13.74;59.09;98535.25;4926599;28;20101;-91
2023/01/19 05:09:59;;;;;;;17.15;4.20;;;;;;;13.81;59.21;98536.72;4927630;28;20046;-92
2023/01/19 05:12:25;;;;;;;22.23;4.18;;;;;;;13.78;59.00;98529.19;4926191;28;20058;-92
2023/01/19 05:14:50;;;;;;;29.77;4.45;;;;;;;13.79;59.08;98538.94;4933283;28;20045;-93
2023/01/19 05:17:16;;;;;;;28.88;4.35;;;;;;;13.88;59.10;98529.75;4927586;28;20038;-94
2023/01/19 05:19:41;;;;;;;19.38;4.70;;;;;;;14.14;58.60;98556.13;4927517;28;20063;-91
2023/01/19 05:22:07;;;;;;;19.27;3.63;;;;;;;14.10;58.65;98541.63;4929047;28;20026;-94
2023/01/19 05:24:32;;;;;;;18.88;3.63;;;;;;;14.08;58.61;98538.44;4943132;28;20034;-93
2023/01/19 05:26:58;;;;;;;17.27;3.90;;;;;;;14.18;57.96;98553.59;4958356;28;20082;-93
2023/01/19 05:29:24;;;;;;;26.35;4.38;;;;;;;14.11;58.42;98549.44;4926585;28;20090;-93
2023/01/19 05:31:49;;;;;;;39.83;4.75;;;;;;;14.17;58.17;98560.91;4926981;28;20053;-93
2023/01/19 05:34:15;;;;;;;19.83;5.10;;;;;;;14.11;58.31;98541.31;4926830;28;20129;-93
2023/01/19 05:36:40;;;;;;;18.17;4.35;;;;;;;14.20;58.13;98570.34;4927906;28;20034;-94
2023/01/19 05:39:06;;;;;;;19.75;4.20;;;;;;;14.15;58.15;98558.53;4927080;28;20066;-94
2023/01/19 05:41:31;;;;;;;18.02;4.15;;;;;;;14.10;57.96;98550.53;4943303;28;20047;-92
2023/01/19 05:43:57;;;;;;;15.95;3.20;;;;;;;14.14;58.12;98556.91;4947221;28;20046;-92
2023/01/19 05:46:23;;;;;;;37.15;5.45;;;;;;;14.26;57.68;98571.78;4926864;28;20102;-93
2023/01/19 05:48:51;;;;;;;24.52;4.95;;;;;;;14.11;58.15;98560.25;4926714;28;20511;-93
2023/01/19 05:51:16;;;;;;;21.27;4.20;;;;;;;14.20;57.81;98568.41;4958982;28;20051;-95
2023/01/19 05:53:42;;;;;;;28.33;4.18;;;;;;;14.19;57.74;98564.09;4933533;28;20062;-96
2023/01/19 05:56:10;;;;;;;31.17;4.38;;;;;;;14.23;57.38;98567.78;4929123;28;20061;-93
2023/01/19 05:58:38;;;;;;;27.02;4.78;;;;;;;14.28;57.57;98580.41;4942180;28;20098;-94
2023/01/19 06:01:07;;;;;;;21.38;3.60;;;;;;;14.21;57.17;98553.75;4932787;28;20035;-94
2023/01/19 06:03:33;;;;;;;32.83;4.82;;;;;;;14.22;57.00;98541.84;4927524;28;20362;-95
2023/01/19 06:05:59;;;;;;;26.67;5.03;;;;;;;14.26;56.63;98542.81;4944491;28;20038;-94
2023/01/19 06:08:24;;;;;;;30.73;3.95;;;;;;;14.27;56.80;98549.00;4959388;28;20190;-95
2023/01/19 06:10:50;;;;;;;27.48;5.13;;;;;;;14.26;56.66;98542.81;4959299;28;20097;-94
2023/01/19 06:13:19;;;;;;;36.20;5.00;;;;;;;14.38;56.40;98547.63;4926628;28;20070;-95
2023/01/19 06:15:44;;;;;;;18.92;4.20;;;;;;;14.52;56.45;98571.88;4927539;28;20154;-94
2023/01/19 06:18:15;;;;;;;20.20;4.47;;;;;;;14.40;56.01;98544.59;4922834;29;20035;-94
2023/01/19 06:20:41;;;;;;;23.67;4.10;;;;;;;14.45;55.74;98539.03;4941328;29;20035;-94
2023/01/19 06:23:09;;;;;;;33.45;4.10;;;;;;;14.54;55.69;98559.59;4908128;29;20039;-92
2023/01/19 06:25:35;;;;;;;29.05;4.10;;;;;;;14.53;55.78;98558.03;4915985;28;20088;-91
2023/01/19 06:28:00;;;;;;;24.63;5.63;;;;;;;14.53;55.71;98551.81;4961458;28;20035;-92
2023/01/19 06:30:28;;;;;;;26.00;4.15;;;;;;;14.57;55.34;98549.28;4947194;28;20034;-92
2023/01/19 06:32:53;;;;;;;25.23;3.67;;;;;;;14.65;55.61;98556.63;4946925;28;20042;-90
2023/01/19 06:35:19;;;;;;;20.40;4.50;;;;;;;14.54;55.70;98567.72;4976890;28;20038;-92
2023/01/19 06:37:44;;;;;;;29.25;4.97;;;;;;;14.69;55.79;98563.03;4966105;28;20460;-90
2023/01/19 06:40:11;;;;;;;25.88;4.82;;;;;;;14.89;55.11;98586.03;4970246;28;20428;-93
2023/01/19 06:42:36;;;;;;;26.52;4.28;;;;;;;14.91;54.96;98572.97;4961951;28;20035;-94
2023/01/19 06:45:05;;;;;;;30.13;5.47;;;;;;;14.79;55.08;98567.34;4986404;28;20108;-94
2023/01/19 06:47:33;;;;;;;24.55;5.20;;;;;;;14.74;55.22;98562.88;4968474;28;20125;-91
2023/01/19 06:49:58;;;;;;;21.42;5.30;;;;;;;15.00;54.13;98590.03;4967230;28;20469;-94
2023/01/19 06:52:24;;;;;;;17.90;4.07;;;;;;;15.11;54.31;98577.78;4966320;28;20038;-93
2023/01/19 06:54:50;;;;;;;25.50;5.95;;;;;;;15.01;54.45;98577.28;4964376;28;20046;-94
2023/01/19 06:57:16;;;;;;;30.10;6.40;;;;;;;15.00;54.57;98578.38;4952705;28;20420;-94
2023/01/19 06:59:41;;;;;;;31.30;4.78;;;;;;;15.02;54.53;98592.41;4947637;28;20232;-95
2023/01/19 07:02:10;;;;;;;25.77;5.28;;;;;;;15.16;54.18;98615.56;4950327;28;20030;-96
2023/01/19 07:04:36;;;;;;;40.88;6.07;;;;;;;15.04;54.56;98595.63;4973576;28;20065;-95
2023/01/19 07:07:01;;;;;;;22.75;4.68;;;;;;;15.23;54.10;98598.03;4954032;28;20038;-95
2023/01/19 07:09:27;;;;;;;22.08;4.65;;;;;;;15.19;54.08;98588.94;4969498;28;20485;-94
2023/01/19 07:11:56;;;;;;;26.38;6.50;;;;;;;15.18;53.89;98579.22;4970088;28;20034;-96
2023/01/19 07:14:29;;;;;;;27.08;4.32;;;;;;;15.27;53.78;98602.50;4971171;28;20112;-95
2023/01/19 07:16:58;;;;;;;20.00;3.75;;;;;;;15.30;53.62;98609.22;5003759;28;20034;-96
2023/01/19 07:19:27;;;;;;;26.65;5.20;;;;;;;15.52;53.22;98625.34;4975514;28;20035;-96
2023/01/19 07:21:53;;;;;;;27.85;5.18;;;;;;;15.46;53.12;98613.03;4969837;28;20039;-93
2023/01/19 07:24:18;;;;;;;19.90;4.07;;;;;;;15.48;52.89;98610.81;4962303;28;20042;-91
2023/01/19 07:26:47;;;;;;;25.08;4.63;;;;;;;15.55;52.65;98623.88;4988755;28;20069;-91
2023/01/19 07:29:13;;;;;;;19.35;4.50;;;;;;;15.55;52.66;98629.31;4968892;28;20409;-95
2023/01/19 07:31:39;;;;;;;24.08;4.60;;;;;;;15.45;52.84;98624.22;4958485;28;20042;-95
2023/01/19 07:34:05;;;;;;;29.15;4.45;;;;;;;15.51;52.42;98621.00;4967999;28;20046;-94
2023/01/19 07:36:31;;;;;;;30.90;6.75;;;;;;;15.58;52.05;98617.81;4967202;28;20030;-94
2023/01/19 07:38:56;;;;;;;25.30;6.05;;;;;;;15.53;52.42;98631.56;4965449;28;20073;-93
2023/01/19 07:41:22;;;;;;;24.25;4.00;;;;;;;15.51;52.48;98622.94;4964609;28;20069;-94
2023/01/19 07:43:50;;;;;;;33.58;5.03;;;;;;;15.63;52.80;98616.88;4979832;28;20030;-92
2023/01/19 07:46:15;;;;;;;19.90;4.13;;;;;;;15.57;52.26;98598.03;4960541;28;20034;-94
2023/01/19 07:48:43;;;;;;;23.73;4.78;;;;;;;15.72;52.14;98604.91;4960267;28;20104;-92
2023/01/19 07:51:11;;;;;;;24.75;4.03;;;;;;;15.91;51.66;98620.84;4954850;28;20045;-94
2023/01/19 07:53:37;;;;;;;24.50;4.95;;;;;;;15.89;51.77;98598.63;4965612;28;20042;-93
2023/01/19 07:56:07;;;;;;;19.58;4.35;;;;;;;15.83;51.34;98599.13;4973369;28;20060;-96
2023/01/19 07:58:33;;;;;;;24.33;3.70;;;;;;;16.04;51.26;98620.97;4968596;28;20034;-95
2023/01/19 08:00:59;;;;;;;26.38;5.57;;;;;;;16.08;50.93;98608.34;4962039;28;20034;-92
2023/01/19 08:03:24;;;;;;;32.08;5.28;;;;;;;16.08;51.81;98609.16;4959958;28;20034;-92
2023/01/19 08:05:51;;;;;;;31.48;5.55;;;;;;;16.15;50.49;98609.44;4976354;28;20045;-92
2023/01/19 08:08:17;;;;;;;28.52;4.60;;;;;;;16.17;49.84;98595.56;4959697;28;20034;-92
2023/01/19 08:10:50;;;;;;;25.50;4.13;;;;;;;16.41;49.58;98605.03;4963396;28;20042;-96
2023/01/19 08:13:15;;;;;;;30.40;4.85;;;;;;;16.46;49.63;98615.75;4989907;28;20032;-96
2023/01/19 08:15:41;;;;;;;26.33;4.43;;;;;;;16.47;49.25;98620.84;4972713;28;20038;-96
2023/01/19 08:18:08;;;;;;;24.98;4.57;;;;;;;16.42;48.93;98606.66;4954378;28;20034;-92
2023/01/19 08:20:34;;;;;;;23.00;3.92;;;;;;;16.40;49.38;98592.59;4962393;28;20100;-93
2023/01/19 08:23:04;;;;;;;33.17;10.68;;;;;;;16.56;48.91;98618.91;4979107;28;20026;-96
2023/01/19 08:26:17;;;;;;;35.20;6.43;;;;;;;16.57;48.13;98604.16;4979073;28;20493;-96
2023/01/19 08:28:45;;;;;;;37.95;6.47;;;;;;;16.46;49.06;98594.00;4959337;28;20074;-96
2023/01/19 08:31:11;;;;;;;25.15;4.03;;;;;;;16.65;48.92;98615.34;4939352;28;20034;-96
2023/01/19 08:33:44;;;;;;;45.55;23.13;;;;;;;16.59;48.35;98592.97;4969768;29;20042;-96
2023/01/19 08:36:14;;;;;;;33.95;10.15;;;;;;;16.75;47.75;98594.00;4969998;29;20042;-96
2023/01/19 08:39:01;;;;;;;32.53;7.10;;;;;;;16.88;47.33;98599.56;4940724;29;20043;-96
2023/01/19 08:41:35;;;;;;;22.60;4.13;;;;;;;16.74;47.10;98581.53;4949531;29;20058;-94
2023/01/19 08:44:06;;;;;;;34.83;3.80;;;;;;;16.87;46.51;98585.19;4920212;29;20107;-96
2023/01/19 08:52:02;;;;;;;30.05;4.07;;;;;;;16.97;46.53;98578.56;5028962;23;20062;-96
2023/01/19 08:57:32;;;;;;;26.58;5.07;;;;;;;16.93;46.49;98591.22;4980293;28;20033;-96
2023/01/19 08:59:58;;;;;;;22.83;3.78;;;;;;;17.11;46.59;98586.47;4945200;28;20035;-95
2023/01/19 09:05:19;;;;;;;26.70;4.43;;;;;;;17.27;46.03;98562.19;5222699;23;20065;-96
2023/01/19 09:11:16;;;;;;;28.92;5.45;;;;;;;17.51;44.99;98578.59;5568827;23;19906;-96
2023/01/19 09:13:57;;;;;;;38.25;5.03;;;;;;;17.45;45.55;98573.69;4998679;28;20043;-96
2023/01/19 09:23:14;;;;;;;24.85;3.75;;;;;;;17.21;45.79;98522.72;5011510;28;20081;-96
2023/01/19 09:34:09;;;;;;;31.83;3.97;;;;;;;17.38;45.55;98552.47;4952916;29;20050;-96
2023/01/19 09:36:52;;;;;;;;;;;;;;;;;;;;;
2023/01/19 09:42:55;;;;;;;;;;;;;;;;;;;;;
2023/01/19 09:45:44;;;;;;;28.52;3.35;;;;;;;17.60;45.03;98535.00;4968881;28;20129;-96
2023/01/19 09:49:18;;;;;;;22.25;3.63;;;;;;;17.53;44.75;98493.91;4954904;29;20138;-96
2023/01/19 09:51:47;;;;;;;23.15;3.78;;;;;;;17.61;45.06;98495.72;4911981;29;20127;-96
2023/01/19 09:54:28;;;;;;;31.05;4.85;;;;;;;17.53;45.33;98488.44;4924123;29;20043;-96
2023/01/19 09:57:14;;;;;;;24.70;4.10;;;;;;;17.65;44.69;98488.47;4930704;29;20058;-96
2023/01/19 10:00:23;;;;;;;24.10;4.63;;;;;;;17.72;43.35;98463.41;4951326;29;20047;-96
2023/01/19 10:04:08;;;;;;;;;;;;;;;;;;;;;
2023/01/19 10:06:41;;;;;;;30.70;5.75;;;;;;;18.02;44.13;98483.13;4946071;29;20047;-96
2023/01/19 10:09:42;;;;;;;19.52;3.35;;;;;;;17.93;43.88;98450.56;4937088;29;20038;-96
2023/01/19 10:12:38;;;;;;;26.13;3.50;;;;;;;18.16;43.38;98477.34;4951794;28;20074;-96
2023/01/19 10:15:35;;;;;;;20.25;5.00;;;;;;;18.20;42.84;98485.63;4936334;28;20031;-96
2023/01/19 10:18:17;;;;;;;30.75;4.75;;;;;;;18.21;42.67;98476.31;4955289;29;20050;-96
2023/01/19 10:20:56;;;;;;;29.23;3.55;;;;;;;18.18;44.37;98475.06;4951734;28;20528;-95
2023/01/19 10:24:14;;;;;;;39.88;8.93;;;;;;;18.13;42.17;98459.72;4947580;28;20039;-96
2023/01/19 10:26:53;;;;;;;32.28;5.85;;;;;;;18.23;42.21;98472.13;4939617;29;20055;-96
2023/01/19 10:29:35;;;;;;;24.50;3.85;;;;;;;18.12;41.97;98454.66;4952042;29;20043;-93
2023/01/19 10:32:11;;;;;;;28.33;3.95;;;;;;;18.04;41.12;98428.31;4963141;29;20514;-94
2023/01/19 10:34:40;;;;;;;27.27;3.90;;;;;;;18.12;41.78;98465.53;4949359;29;20424;-96
2023/01/19 10:37:30;;;;;;;17.92;3.80;;;;;;;18.23;41.78;98458.50;4962020;29;20486;-95
2023/01/19 10:40:32;;;;;;;17.90;3.90;;;;;;;18.34;42.14;98453.38;4960838;28;20457;-96
2023/01/19 10:43:53;;;;;;;;;;;;;;;;;;;;;
2023/01/19 10:47:37;;;;;;;;;;;;;;;;;;;;;
2023/01/19 10:57:39;;;;;;;16.15;3.58;;;;;;;18.48;42.49;98461.19;4924060;29;20245;-94
2023/01/19 11:00:28;;;;;;;17.88;3.13;;;;;;;18.33;42.32;98444.41;4887930;29;20044;-95
2023/01/19 11:02:59;;;;;;;22.15;4.82;;;;;;;18.42;42.88;98444.25;4874529;29;20036;-96
2023/01/19 11:05:41;;;;;;;23.80;4.07;;;;;;;18.25;41.95;98436.34;4864069;29;20044;-96
2023/01/19 11:08:42;;;;;;;15.10;3.05;;;;;;;18.31;41.95;98430.31;4884518;29;20064;-96
2023/01/19 11:11:11;;;;;;;17.45;3.10;;;;;;;18.27;42.25;98410.34;4957633;28;20038;-93
2023/01/19 11:13:40;;;;;;;13.93;2.78;;;;;;;18.46;42.14;98449.84;4960925;28;20066;-89
2023/01/19 11:16:15;;;;;;;19.20;3.65;;;;;;;18.47;42.07;98440.50;4945042;28;20039;-91
2023/01/19 11:19:09;;;;;;;21.48;3.40;;;;;;;18.20;42.07;98414.78;4965065;28;20121;-95
2023/01/19 11:21:43;;;;;;;26.75;3.47;;;;;;;18.38;42.05;98440.63;4966189;28;20501;-96
2023/01/19 11:24:28;;;;;;;;;;;;;;;;;;;;;
2023/01/19 11:26:56;;;;;;;20.85;4.60;;;;;;;18.32;42.22;98429.19;4984375;28;20082;-96
2023/01/19 11:29:28;;;;;;;18.38;3.55;;;;;;;18.28;41.97;98420.13;4958900;28;20035;-95
2023/01/19 11:32:35;;;;;;;16.00;2.92;;;;;;;18.28;42.62;98422.03;4956629;29;20035;-96
2023/01/19 11:35:53;;;;;;;15.93;3.50;;;;;;;18.44;42.12;98452.09;4948633;29;20059;-95
2023/01/19 11:38:29;;;;;;;16.90;3.20;;;;;;;18.28;41.55;98425.56;4964151;28;20047;-92
2023/01/19 11:40:56;;;;;;;13.75;2.85;;;;;;;18.35;41.44;98414.88;4958434;29;20054;-94
2023/01/19 11:43:30;;;;;;;13.88;2.40;;;;;;;18.45;41.69;98435.41;4946486;29;20490;-93
2023/01/19 11:45:56;;;;;;;15.45;2.50;;;;;;;18.41;42.15;98407.25;4915462;29;20039;-93
2023/01/19 11:48:32;;;;;;;18.85;3.05;;;;;;;18.45;41.57;98429.97;4939134;29;20101;-94
2023/01/19 11:50:58;;;;;;;18.15;3.03;;;;;;;18.50;41.55;98424.25;4915441;29;20054;-95
2023/01/19 11:53:42;;;;;;;18.52;3.15;;;;;;;18.53;41.58;98433.69;4915902;29;20045;-93
2023/01/19 11:56:16;;;;;;;12.93;2.70;;;;;;;18.59;40.65;98435.03;4924516;29;20047;-95
2023/01/19 11:58:47;;;;;;;18.95;2.47;;;;;;;18.47;41.25;98424.97;4925371;29;20100;-96
2023/01/19 12:01:34;;;;;;;17.55;2.20;;;;;;;18.53;41.03;98430.94;4912656;29;20039;-93
2023/01/19 12:04:39;;;;;;;20.02;2.78;;;;;;;18.46;41.33;98430.75;4913638;29;20074;-95
2023/01/19 12:07:09;;;;;;;14.10;2.97;;;;;;;18.41;41.87;98431.78;4885999;29;20178;-95
2023/01/19 12:12:50;;;;;;;15.43;2.63;;;;;;;18.29;41.71;98421.69;4877444;29;20078;-93
2023/01/19 12:15:22;;;;;;;17.10;3.30;;;;;;;18.17;42.63;98438.84;4866148;29;20104;-94
2023/01/19 12:17:49;;;;;;;20.05;2.65;;;;;;;18.23;42.76;98433.19;4876662;29;20056;-94
2023/01/19 12:20:43;;;;;;;15.23;2.85;;;;;;;18.33;41.78;98443.63;4873682;29;20040;-94
2023/01/19 12:23:29;;;;;;;18.02;2.58;;;;;;;18.29;41.76;98439.97;4876229;29;20496;-95
2023/01/19 12:26:28;;;;;;;17.00;2.97;;;;;;;18.29;42.06;98429.88;4888568;29;20048;-95
2023/01/19 12:28:57;;;;;;;11.70;2.38;;;;;;;18.16;42.34;98403.78;4893702;29;20531;-92
2023/01/19 12:31:23;;;;;;;20.67;2.65;;;;;;;18.08;42.19;98399.25;4862840;29;20538;-92
2023/01/19 12:34:24;;;;;;;20.67;3.40;;;;;;;18.13;41.88;98390.84;4868505;29;20049;-96
2023/01/19 12:36:50;;;;;;;16.45;2.60;;;;;;;18.13;43.24;98420.81;4883235;29;20583;-93
2023/01/19 12:39:19;;;;;;;14.43;3.50;;;;;;;18.24;42.23;98413.75;4935023;29;20035;-95
2023/01/19 12:41:46;;;;;;;16.45;3.33;;;;;;;17.97;42.29;98397.00;4937422;29;20057;-96
2023/01/19 12:44:15;;;;;;;12.35;2.45;;;;;;;18.16;42.11;98420.13;4924015;29;20147;-95
2023/01/19 12:47:18;;;;;;;15.00;2.72;;;;;;;18.01;42.42;98423.53;4949177;29;20054;-94
2023/01/19 12:50:10;;;;;;;21.30;2.90;;;;;;;17.74;42.85;98414.88;4942682;29;20051;-96